Time;durP1;ratioP1;P1;durP2;ratioP2;P2;SDS_P1;SDS_P2;PMS_P1;PMS_P2;Temp;Humidity;BMP_temperature;BMP_pressure;BME280_temperature;BME280_humidity;BME280_pressure;Samples;Min_cycle;Max_cycle;Signal;HPM_P1;HPM_P2
2022/09/13 00:00:56;;;;;;;4.33;3.70;;;;;;;;;;5048790;28;20198;-66
2022/09/13 00:03:39;;;;;;;5.50;3.53;;;;;;;;;;5045302;28;20241;-67
2022/09/13 00:06:19;;;;;;;4.37;4.00;;;;;;;;;;5047957;28;20202;-66
2022/09/13 00:08:50;;;;;;;4.67;4.27;;;;;;;;;;5075726;28;20198;-66
2022/09/13 00:11:25;;;;;;;4.17;3.77;;;;;;;;;;5048847;28;20221;-66
2022/09/13 00:13:57;;;;;;;4.63;4.00;;;;;;;;;;5048344;28;20210;-66
2022/09/13 00:16:30;;;;;;;4.43;4.00;;;;;;;;;;5041549;28;20235;-66
2022/09/13 00:19:11;;;;;;;4.00;3.60;;;;;;;;;;5049307;28;20191;-67
2022/09/13 00:21:42;;;;;;;4.23;3.83;;;;;;;;;;5050480;28;20680;-66
2022/09/13 00:24:14;;;;;;;4.50;3.90;;;;;;;;;;5051176;28;20206;-66
2022/09/13 00:26:43;;;;;;;5.53;3.80;;;;;;;;;;5017514;28;20206;-66
2022/09/13 00:29:12;;;;;;;4.17;3.67;;;;;;;;;;5058306;28;20205;-66
2022/09/13 00:31:56;;;;;;;4.00;3.60;;;;;;;;;;5061316;28;20232;-67
2022/09/13 00:34:29;;;;;;;3.97;3.63;;;;;;;;;;5044414;28;20199;-66
2022/09/13 00:36:57;;;;;;;4.17;3.70;;;;;;;;;;5034618;28;20219;-66
2022/09/13 00:39:27;;;;;;;3.67;3.37;;;;;;;;;;5029989;28;20302;-66
2022/09/13 00:42:01;;;;;;;4.53;3.70;;;;;;;;;;5059803;28;20202;-66
2022/09/13 00:44:48;;;;;;;3.90;3.60;;;;;;;;;;5045128;28;20218;-66
2022/09/13 00:47:33;;;;;;;4.07;3.67;;;;;;;;;;5051763;28;20194;-66
2022/09/13 00:50:24;;;;;;;3.50;3.20;;;;;;;;;;5037885;28;20663;-66
2022/09/13 00:53:00;;;;;;;4.13;3.73;;;;;;;;;;5048434;28;20733;-66
2022/09/13 00:55:53;;;;;;;3.80;3.17;;;;;;;;;;5034460;28;20188;-66
2022/09/13 00:58:25;;;;;;;3.70;3.20;;;;;;;;;;5054134;28;20239;-66
2022/09/13 01:00:58;;;;;;;3.43;3.13;;;;;;;;;;5037257;28;20264;-66
2022/09/13 01:03:31;;;;;;;4.23;3.33;;;;;;;;;;5041749;28;20280;-66
2022/09/13 01:06:12;;;;;;;4.40;3.13;;;;;;;;;;5041702;28;20489;-66
2022/09/13 01:08:45;;;;;;;5.00;3.00;;;;;;;;;;5025159;28;20194;-66
2022/09/13 01:11:19;;;;;;;3.83;3.17;;;;;;;;;;5038159;28;20691;-66
2022/09/13 01:13:50;;;;;;;3.90;2.90;;;;;;;;;;5047152;28;20195;-66
2022/09/13 01:16:30;;;;;;;3.63;3.33;;;;;;;;;;5031171;28;20207;-65
2022/09/13 01:19:01;;;;;;;3.53;3.23;;;;;;;;;;5045583;28;20205;-66
2022/09/13 01:21:50;;;;;;;3.13;2.83;;;;;;;;;;5036630;28;20197;-65
2022/09/13 01:24:35;;;;;;;4.07;3.20;;;;;;;;;;5037812;28;20675;-65
2022/09/13 01:27:21;;;;;;;2.90;2.70;;;;;;;;;;5034291;28;20218;-67
2022/09/13 01:30:09;;;;;;;3.67;3.10;;;;;;;;;;5034879;28;20641;-65
2022/09/13 01:32:57;;;;;;;3.20;2.90;;;;;;;;;;5041080;28;20190;-65
2022/09/13 01:36:09;;;;;;;3.13;2.83;;;;;;;;;;5042069;28;20194;-65
2022/09/13 01:38:51;;;;;;;4.50;2.83;;;;;;;;;;5018789;28;20227;-65
2022/09/13 01:41:21;;;;;;;5.40;3.10;;;;;;;;;;5024711;28;20211;-65
2022/09/13 01:44:15;;;;;;;3.10;2.90;;;;;;;;;;5024288;28;20210;-65
2022/09/13 01:47:04;;;;;;;4.53;2.93;;;;;;;;;;5018489;28;20219;-65
2022/09/13 01:49:59;;;;;;;3.30;2.83;;;;;;;;;;5016726;28;20230;-65
2022/09/13 01:52:56;;;;;;;3.20;2.90;;;;;;;;;;5019359;28;20637;-66
2022/09/13 01:55:51;;;;;;;3.40;3.10;;;;;;;;;;5008221;28;20218;-66
2022/09/13 01:58:35;;;;;;;3.00;2.80;;;;;;;;;;5020981;28;20834;-65
2022/09/13 02:01:21;;;;;;;3.27;3.03;;;;;;;;;;5042678;28;20194;-66
2022/09/13 02:04:15;;;;;;;2.70;2.50;;;;;;;;;;5042956;28;20228;-66
2022/09/13 02:07:15;;;;;;;2.80;2.60;;;;;;;;;;5040165;28;20676;-66
2022/09/13 02:09:47;;;;;;;3.07;2.87;;;;;;;;;;5006425;28;20527;-66
2022/09/13 02:12:26;;;;;;;2.83;2.63;;;;;;;;;;5026005;28;20213;-66
2022/09/13 02:15:01;;;;;;;2.73;2.53;;;;;;;;;;5041484;28;20237;-65
2022/09/13 02:17:37;;;;;;;2.80;2.60;;;;;;;;;;5049316;28;20197;-65
2022/09/13 02:20:22;;;;;;;3.13;2.60;;;;;;;;;;5060038;28;20244;-65
2022/09/13 02:22:54;;;;;;;2.73;2.60;;;;;;;;;;5019080;28;20202;-65
2022/09/13 02:25:27;;;;;;;5.40;3.00;;;;;;;;;;5046404;28;20229;-65
2022/09/13 02:28:01;;;;;;;2.73;2.53;;;;;;;;;;5043549;28;20225;-66
2022/09/13 02:30:35;;;;;;;3.10;2.63;;;;;;;;;;5038766;28;20187;-65
2022/09/13 02:33:11;;;;;;;2.77;2.57;;;;;;;;;;5022165;28;20187;-66
2022/09/13 02:35:45;;;;;;;3.07;2.77;;;;;;;;;;5030058;28;20201;-65
2022/09/13 02:38:22;;;;;;;4.10;2.70;;;;;;;;;;5053299;28;20213;-66
2022/09/13 02:40:59;;;;;;;3.17;2.87;;;;;;;;;;5046476;28;20533;-65
2022/09/13 02:43:45;;;;;;;2.83;2.63;;;;;;;;;;5044209;28;20203;-65
2022/09/13 02:46:25;;;;;;;2.63;2.43;;;;;;;;;;5030848;28;20211;-65
2022/09/13 02:49:23;;;;;;;2.80;2.60;;;;;;;;;;5032477;28;20266;-65
2022/09/13 02:52:05;;;;;;;2.90;2.70;;;;;;;;;;5018021;28;20223;-65
2022/09/13 02:54:42;;;;;;;3.20;2.70;;;;;;;;;;5019527;28;20202;-66
2022/09/13 02:57:31;;;;;;;2.20;2.10;;;;;;;;;;5031343;28;20867;-65
2022/09/13 03:00:01;;;;;;;2.37;2.17;;;;;;;;;;5023173;28;20248;-66
2022/09/13 03:02:44;;;;;;;2.87;2.60;;;;;;;;;;5038215;28;20309;-66
2022/09/13 03:05:13;;;;;;;3.43;2.80;;;;;;;;;;5029248;28;20222;-65
2022/09/13 03:07:41;;;;;;;2.90;2.60;;;;;;;;;;5058256;28;20530;-65
2022/09/13 03:10:14;;;;;;;2.33;2.00;;;;;;;;;;5039719;28;20597;-66
2022/09/13 03:13:01;;;;;;;2.67;2.47;;;;;;;;;;5041819;28;20609;-66
2022/09/13 03:15:55;;;;;;;3.00;2.70;;;;;;;;;;5061881;28;20352;-65
2022/09/13 03:18:41;;;;;;;4.20;2.93;;;;;;;;;;5048023;28;20267;-67
2022/09/13 03:21:24;;;;;;;2.30;2.10;;;;;;;;;;5031695;28;20222;-65
2022/09/13 03:24:10;;;;;;;2.70;2.50;;;;;;;;;;5049625;28;20201;-66
2022/09/13 03:26:50;;;;;;;4.37;2.60;;;;;;;;;;5034467;28;20323;-67
2022/09/13 03:29:30;;;;;;;2.40;2.20;;;;;;;;;;5062161;28;20517;-67
2022/09/13 03:32:21;;;;;;;2.97;2.77;;;;;;;;;;5060706;28;20198;-66
2022/09/13 03:35:10;;;;;;;2.40;2.20;;;;;;;;;;5029379;28;20217;-67
2022/09/13 03:37:44;;;;;;;2.93;2.60;;;;;;;;;;5048863;28;20214;-66
2022/09/13 03:40:18;;;;;;;5.00;3.03;;;;;;;;;;5044423;28;20214;-69
2022/09/13 03:42:56;;;;;;;3.03;2.37;;;;;;;;;;5048362;28;20281;-66
2022/09/13 03:45:38;;;;;;;3.40;2.70;;;;;;;;;;5037991;28;20299;-66
2022/09/13 03:48:07;;;;;;;2.80;2.50;;;;;;;;;;5033196;28;20286;-66
2022/09/13 03:50:48;;;;;;;2.80;2.60;;;;;;;;;;5045262;28;20325;-66
2022/09/13 03:53:28;;;;;;;2.60;2.40;;;;;;;;;;5049009;28;20283;-66
2022/09/13 03:55:58;;;;;;;3.17;2.87;;;;;;;;;;5054889;28;20207;-67
2022/09/13 03:58:28;;;;;;;3.07;2.70;;;;;;;;;;5027378;28;20578;-67
2022/09/13 04:01:09;;;;;;;2.90;2.60;;;;;;;;;;5011266;28;20195;-66
2022/09/13 04:03:51;;;;;;;3.37;2.77;;;;;;;;;;5011546;28;20223;-67
2022/09/13 04:06:26;;;;;;;3.03;2.73;;;;;;;;;;5024449;28;20223;-67
2022/09/13 04:08:58;;;;;;;2.90;2.70;;;;;;;;;;5035391;28;20230;-67
2022/09/13 04:11:30;;;;;;;3.33;2.93;;;;;;;;;;5025067;28;20192;-67
2022/09/13 04:14:02;;;;;;;3.17;2.80;;;;;;;;;;5015239;28;20783;-67
2022/09/13 04:16:37;;;;;;;2.50;2.30;;;;;;;;;;5009826;28;20257;-66
2022/09/13 04:19:09;;;;;;;2.60;2.40;;;;;;;;;;5026197;28;20692;-67
2022/09/13 04:21:41;;;;;;;3.20;2.90;;;;;;;;;;5023270;28;20198;-67
2022/09/13 04:24:13;;;;;;;2.97;2.77;;;;;;;;;;5017315;28;20195;-67
2022/09/13 04:26:44;;;;;;;3.00;2.80;;;;;;;;;;5020406;28;20228;-67
2022/09/13 04:29:17;;;;;;;3.30;2.70;;;;;;;;;;5033781;28;20199;-67
2022/09/13 04:31:50;;;;;;;2.90;2.40;;;;;;;;;;5036815;28;20612;-67
2022/09/13 04:34:25;;;;;;;2.77;2.57;;;;;;;;;;5009495;28;20202;-67
2022/09/13 04:36:56;;;;;;;3.13;2.87;;;;;;;;;;5010939;28;20191;-67
2022/09/13 04:39:27;;;;;;;3.30;2.60;;;;;;;;;;5030354;28;20203;-67
2022/09/13 04:42:01;;;;;;;2.50;2.30;;;;;;;;;;5023114;28;20195;-66
2022/09/13 04:44:34;;;;;;;2.80;2.60;;;;;;;;;;5007489;28;20206;-70
2022/09/13 04:47:06;;;;;;;3.13;2.83;;;;;;;;;;5016393;28;20195;-67
2022/09/13 04:49:39;;;;;;;2.90;2.60;;;;;;;;;;5027045;28;20598;-67
2022/09/13 04:52:10;;;;;;;2.93;2.70;;;;;;;;;;5006033;28;20206;-67
2022/09/13 04:54:42;;;;;;;3.03;2.40;;;;;;;;;;5026706;28;20202;-67
2022/09/13 04:57:13;;;;;;;2.67;2.47;;;;;;;;;;5019676;28;20230;-66
2022/09/13 04:59:42;;;;;;;3.77;2.27;;;;;;;;;;5052101;28;20250;-66
2022/09/13 05:02:12;;;;;;;2.90;2.70;;;;;;;;;;5053764;28;20248;-67
2022/09/13 05:04:42;;;;;;;2.63;2.33;;;;;;;;;;5043771;28;20226;-67
2022/09/13 05:07:13;;;;;;;3.07;2.43;;;;;;;;;;5040688;28;20202;-67
2022/09/13 05:09:45;;;;;;;2.90;2.60;;;;;;;;;;5048752;28;20201;-67
2022/09/13 05:12:15;;;;;;;3.43;2.50;;;;;;;;;;5049710;28;20201;-67
2022/09/13 05:14:44;;;;;;;2.87;2.47;;;;;;;;;;5032483;28;20210;-69
2022/09/13 05:17:20;;;;;;;2.73;2.53;;;;;;;;;;5051552;28;20202;-70
2022/09/13 05:19:53;;;;;;;49.83;11.97;;;;;;;;;;5053993;28;20194;-67
2022/09/13 05:22:46;;;;;;;60.03;15.13;;;;;;;;;;5053763;28;20660;-68
2022/09/13 05:25:16;;;;;;;55.87;15.27;;;;;;;;;;5047241;28;20226;-69
2022/09/13 05:27:53;;;;;;;58.97;15.77;;;;;;;;;;5045834;28;20670;-66
2022/09/13 05:30:28;;;;;;;49.30;14.47;;;;;;;;;;5031749;28;20256;-69
2022/09/13 05:32:57;;;;;;;41.40;11.90;;;;;;;;;;5052049;28;20756;-69
2022/09/13 05:35:29;;;;;;;44.53;12.73;;;;;;;;;;5034364;28;20687;-68
2022/09/13 05:37:58;;;;;;;32.87;10.67;;;;;;;;;;5046246;28;20206;-67
2022/09/13 05:40:29;;;;;;;24.17;7.53;;;;;;;;;;5032510;28;20199;-67
2022/09/13 05:43:01;;;;;;;17.73;7.47;;;;;;;;;;5046499;28;20276;-67
2022/09/13 05:45:32;;;;;;;23.47;8.10;;;;;;;;;;5036984;28;20222;-68
2022/09/13 05:48:01;;;;;;;13.00;5.93;;;;;;;;;;5037380;28;20199;-67
2022/09/13 05:50:30;;;;;;;9.57;5.17;;;;;;;;;;5030831;28;20222;-67
2022/09/13 05:53:24;;;;;;;11.90;5.63;;;;;;;;;;5043845;28;20652;-67
2022/09/13 05:55:56;;;;;;;14.10;5.10;;;;;;;;;;5045036;28;20214;-67
2022/09/13 05:58:29;;;;;;;9.20;4.30;;;;;;;;;;5048956;28;20644;-67
2022/09/13 06:01:01;;;;;;;7.50;4.13;;;;;;;;;;5040277;28;20201;-67
2022/09/13 06:03:44;;;;;;;13.20;5.37;;;;;;;;;;5040965;28;20844;-67
2022/09/13 06:06:15;;;;;;;13.57;5.40;;;;;;;;;;5042024;28;20214;-67
2022/09/13 06:08:44;;;;;;;11.73;5.37;;;;;;;;;;5050993;28;20186;-67
2022/09/13 06:11:16;;;;;;;10.83;5.03;;;;;;;;;;5028336;28;20614;-67
2022/09/13 06:13:45;;;;;;;11.17;4.90;;;;;;;;;;5045689;28;20214;-67
2022/09/13 06:16:16;;;;;;;6.53;4.20;;;;;;;;;;5047613;28;20190;-68
2022/09/13 06:18:47;;;;;;;10.73;4.67;;;;;;;;;;5061850;28;20647;-67
2022/09/13 06:21:22;;;;;;;9.03;3.70;;;;;;;;;;5044286;28;20202;-69
2022/09/13 06:23:58;;;;;;;7.73;3.50;;;;;;;;;;5060650;28;20260;-69
2022/09/13 06:26:27;;;;;;;8.13;3.87;;;;;;;;;;5040265;28;20287;-68
2022/09/13 06:28:59;;;;;;;5.93;3.33;;;;;;;;;;5060141;28;20205;-68
2022/09/13 06:31:33;;;;;;;6.10;3.47;;;;;;;;;;5032125;28;20191;-69
2022/09/13 06:34:07;;;;;;;7.17;3.57;;;;;;;;;;5045590;28;20274;-69
2022/09/13 06:36:35;;;;;;;4.73;3.30;;;;;;;;;;5038752;28;20366;-68
2022/09/13 06:39:08;;;;;;;6.23;3.50;;;;;;;;;;5045019;28;20272;-68
2022/09/13 06:41:40;;;;;;;7.17;3.03;;;;;;;;;;5038994;28;20206;-68
2022/09/13 06:44:12;;;;;;;5.43;3.20;;;;;;;;;;5036856;28;20198;-69
2022/09/13 06:46:42;;;;;;;3.83;3.33;;;;;;;;;;5041519;28;20216;-68
2022/09/13 06:49:13;;;;;;;4.40;3.00;;;;;;;;;;5047887;28;20646;-69
2022/09/13 06:51:46;;;;;;;3.43;3.10;;;;;;;;;;5046702;28;20652;-68
2022/09/13 06:54:19;;;;;;;3.50;3.10;;;;;;;;;;5050209;28;20702;-68
2022/09/13 06:56:51;;;;;;;3.93;3.00;;;;;;;;;;5045292;28;20209;-69
2022/09/13 06:59:24;;;;;;;3.97;2.83;;;;;;;;;;5029101;28;20234;-69
2022/09/13 07:02:05;;;;;;;6.27;3.33;;;;;;;;;;5049315;28;20277;-68
2022/09/13 07:04:36;;;;;;;4.37;3.20;;;;;;;;;;5052326;28;20213;-69
2022/09/13 07:07:08;;;;;;;5.43;3.30;;;;;;;;;;5053134;28;20221;-68
2022/09/13 07:09:46;;;;;;;5.60;3.57;;;;;;;;;;5052549;28;20190;-68
2022/09/13 07:12:20;;;;;;;5.80;3.67;;;;;;;;;;5046787;28;20262;-69
2022/09/13 07:14:52;;;;;;;7.43;4.17;;;;;;;;;;5046528;28;20214;-69
2022/09/13 07:17:20;;;;;;;4.10;3.70;;;;;;;;;;5049843;28;20204;-69
2022/09/13 07:19:56;;;;;;;7.17;3.83;;;;;;;;;;5037493;28;20194;-69
2022/09/13 07:22:28;;;;;;;3.93;2.97;;;;;;;;;;5055961;28;20205;-69
2022/09/13 07:25:00;;;;;;;4.67;3.57;;;;;;;;;;5046965;28;20198;-68
2022/09/13 07:27:34;;;;;;;3.90;3.50;;;;;;;;;;5057647;28;20226;-68
2022/09/13 07:30:05;;;;;;;4.63;3.50;;;;;;;;;;5047428;28;20224;-69
2022/09/13 07:32:36;;;;;;;4.43;3.70;;;;;;;;;;5045202;28;21039;-69
2022/09/13 07:35:06;;;;;;;3.77;3.33;;;;;;;;;;5038227;28;20247;-70
2022/09/13 07:37:38;;;;;;;3.53;3.23;;;;;;;;;;5039393;28;20200;-69
2022/09/13 07:40:09;;;;;;;3.90;3.37;;;;;;;;;;5045259;28;20553;-69
2022/09/13 07:42:37;;;;;;;4.00;3.50;;;;;;;;;;5040291;28;20268;-67
2022/09/13 07:45:11;;;;;;;4.27;3.73;;;;;;;;;;5044516;28;20252;-67
2022/09/13 07:47:44;;;;;;;7.00;3.43;;;;;;;;;;5045681;28;20248;-66
2022/09/13 07:50:19;;;;;;;5.33;3.47;;;;;;;;;;5047817;28;20209;-69
2022/09/13 07:52:55;;;;;;;3.80;3.30;;;;;;;;;;5035631;28;20225;-67
2022/09/13 07:55:27;;;;;;;4.27;3.67;;;;;;;;;;5047113;28;20191;-66
2022/09/13 07:57:58;;;;;;;5.97;3.87;;;;;;;;;;5053369;28;20640;-68
2022/09/13 08:00:43;;;;;;;4.47;3.10;;;;;;;;;;5043693;28;20324;-69
2022/09/13 08:03:12;;;;;;;4.47;3.57;;;;;;;;;;5041994;28;20228;-68
2022/09/13 08:05:43;;;;;;;6.47;4.20;;;;;;;;;;5050085;28;20241;-67
2022/09/13 08:08:15;;;;;;;4.53;3.87;;;;;;;;;;5054409;28;20631;-67
2022/09/13 08:10:45;;;;;;;8.33;4.03;;;;;;;;;;5050458;28;20206;-68
2022/09/13 08:13:16;;;;;;;5.47;3.73;;;;;;;;;;5046929;28;20632;-68
2022/09/13 08:15:44;;;;;;;5.83;4.63;;;;;;;;;;5045758;28;20207;-68
2022/09/13 08:18:15;;;;;;;7.63;4.13;;;;;;;;;;5023649;28;20277;-68
2022/09/13 08:20:47;;;;;;;5.50;4.17;;;;;;;;;;5011741;28;20707;-67
2022/09/13 08:23:18;;;;;;;4.53;3.97;;;;;;;;;;5026680;28;20289;-67
2022/09/13 08:25:46;;;;;;;4.90;4.40;;;;;;;;;;5055164;28;20222;-67
2022/09/13 08:28:20;;;;;;;5.90;4.50;;;;;;;;;;5039294;28;20696;-67
2022/09/13 08:30:55;;;;;;;5.23;4.20;;;;;;;;;;5030153;28;20194;-67
2022/09/13 08:33:29;;;;;;;4.73;4.33;;;;;;;;;;5047511;28;20190;-68
2022/09/13 08:36:00;;;;;;;4.83;4.43;;;;;;;;;;5042166;28;20203;-67
2022/09/13 08:38:33;;;;;;;6.30;4.53;;;;;;;;;;5025225;28;20218;-67
2022/09/13 08:41:05;;;;;;;6.00;4.57;;;;;;;;;;5052105;28;20212;-67
2022/09/13 08:44:04;;;;;;;7.03;5.17;;;;;;;;;;5050168;28;20195;-67
2022/09/13 08:46:37;;;;;;;5.60;5.00;;;;;;;;;;5028397;28;20209;-67
2022/09/13 08:49:08;;;;;;;6.20;4.80;;;;;;;;;;5044323;28;20186;-67
2022/09/13 08:51:50;;;;;;;5.30;4.70;;;;;;;;;;5032440;28;20596;-68
2022/09/13 08:54:21;;;;;;;6.33;4.70;;;;;;;;;;5039912;28;20228;-67
2022/09/13 08:57:03;;;;;;;6.70;4.97;;;;;;;;;;5061872;28;20217;-66
2022/09/13 09:00:02;;;;;;;11.03;6.83;;;;;;;;;;5057089;28;20234;-67
2022/09/13 09:03:00;;;;;;;6.03;5.43;;;;;;;;;;5037503;28;20277;-68
2022/09/13 09:05:39;;;;;;;6.37;5.77;;;;;;;;;;5030557;28;20237;-68
2022/09/13 09:08:18;;;;;;;7.87;6.53;;;;;;;;;;5063639;28;20202;-68
2022/09/13 09:10:59;;;;;;;8.10;7.30;;;;;;;;;;5047381;28;20197;-68
2022/09/13 09:13:47;;;;;;;8.00;6.57;;;;;;;;;;5026450;28;20199;-68
2022/09/13 09:16:29;;;;;;;7.23;6.53;;;;;;;;;;5041819;28;20252;-68
2022/09/13 09:19:11;;;;;;;8.97;7.63;;;;;;;;;;5056473;28;20206;-67
2022/09/13 09:21:53;;;;;;;10.40;9.20;;;;;;;;;;5027449;28;20206;-67
2022/09/13 09:24:26;;;;;;;11.17;9.97;;;;;;;;;;5040408;28;20560;-68
2022/09/13 09:27:00;;;;;;;10.03;9.00;;;;;;;;;;5027966;28;20242;-68
2022/09/13 09:29:34;;;;;;;10.13;9.10;;;;;;;;;;5047397;28;20203;-68
2022/09/13 09:32:26;;;;;;;9.67;8.20;;;;;;;;;;5041962;28;20201;-68
2022/09/13 09:35:13;;;;;;;10.50;9.40;;;;;;;;;;5056669;28;20225;-69
2022/09/13 09:37:47;;;;;;;10.27;9.27;;;;;;;;;;5077853;28;20262;-68
2022/09/13 09:40:16;;;;;;;10.07;8.77;;;;;;;;;;5065075;28;20216;-68
2022/09/13 09:42:50;;;;;;;9.07;8.27;;;;;;;;;;5071362;28;20217;-68
2022/09/13 09:45:28;;;;;;;11.90;10.43;;;;;;;;;;5037232;28;20231;-68
2022/09/13 09:48:14;;;;;;;10.53;9.43;;;;;;;;;;5068694;28;20221;-67
2022/09/13 09:50:48;;;;;;;9.50;8.50;;;;;;;;;;5066601;28;20202;-68
2022/09/13 09:53:27;;;;;;;10.93;9.83;;;;;;;;;;5058241;28;20201;-67
2022/09/13 09:56:23;;;;;;;12.23;11.03;;;;;;;;;;5065219;28;20193;-67
2022/09/13 09:58:54;;;;;;;10.70;9.70;;;;;;;;;;5064713;28;20247;-67
2022/09/13 10:01:38;;;;;;;10.23;9.20;;;;;;;;;;5064374;28;20626;-67
2022/09/13 10:04:21;;;;;;;10.67;9.60;;;;;;;;;;5074465;28;20224;-67
2022/09/13 10:07:12;;;;;;;10.50;9.40;;;;;;;;;;5069374;28;20248;-67
2022/09/13 10:09:54;;;;;;;10.13;9.07;;;;;;;;;;5065542;28;20258;-68
2022/09/13 10:12:28;;;;;;;9.23;8.33;;;;;;;;;;5077622;28;20252;-67
2022/09/13 10:15:05;;;;;;;9.87;8.87;;;;;;;;;;5075881;28;20283;-67
2022/09/13 10:17:34;;;;;;;13.37;12.07;;;;;;;;;;5066212;28;20701;-67
2022/09/13 10:20:26;;;;;;;9.40;8.43;;;;;;;;;;5069527;28;20208;-67
2022/09/13 10:23:11;;;;;;;8.07;7.27;;;;;;;;;;5066939;28;20193;-67
2022/09/13 10:25:40;;;;;;;12.43;10.57;;;;;;;;;;5085804;28;20200;-69
2022/09/13 10:28:16;;;;;;;12.10;10.37;;;;;;;;;;5072912;28;20233;-67
2022/09/13 10:30:48;;;;;;;15.27;11.83;;;;;;;;;;5052231;28;20204;-67
2022/09/13 10:33:31;;;;;;;11.00;9.07;;;;;;;;;;5056010;28;20779;-67
2022/09/13 10:36:06;;;;;;;8.10;7.13;;;;;;;;;;5081781;28;20198;-67
2022/09/13 10:38:39;;;;;;;8.93;7.03;;;;;;;;;;5054581;28;20418;-68
2022/09/13 10:41:24;;;;;;;11.83;7.43;;;;;;;;;;5068557;28;20197;-67
2022/09/13 10:44:02;;;;;;;6.73;6.03;;;;;;;;;;5080601;28;20202;-67
2022/09/13 10:46:39;;;;;;;11.00;6.43;;;;;;;;;;5052448;28;20217;-67
2022/09/13 10:49:28;;;;;;;8.23;5.87;;;;;;;;;;5062899;28;20636;-68
2022/09/13 10:52:32;;;;;;;7.17;5.57;;;;;;;;;;5076367;28;20229;-67
2022/09/13 10:55:23;;;;;;;10.97;9.40;;;;;;;;;;5062138;28;20251;-67
2022/09/13 10:57:55;;;;;;;14.13;10.07;;;;;;;;;;5064049;28;20245;-67
2022/09/13 11:00:51;;;;;;;9.63;7.33;;;;;;;;;;5064531;28;20198;-68
2022/09/13 11:03:38;;;;;;;10.33;9.23;;;;;;;;;;5048446;28;20214;-67
2022/09/13 11:06:26;;;;;;;17.27;10.37;;;;;;;;;;5066843;28;20662;-67
2022/09/13 11:09:18;;;;;;;12.33;11.03;;;;;;;;;;5070481;28;20205;-67
2022/09/13 11:12:07;;;;;;;11.97;8.10;;;;;;;;;;5067023;28;20189;-66
2022/09/13 11:14:57;;;;;;;12.30;9.43;;;;;;;;;;5064532;28;20877;-67
2022/09/13 11:17:30;;;;;;;16.63;9.47;;;;;;;;;;5083719;28;20202;-67
2022/09/13 11:20:11;;;;;;;17.80;9.40;;;;;;;;;;5069792;28;20308;-68
2022/09/13 11:23:01;;;;;;;14.07;7.90;;;;;;;;;;5068411;28;20205;-68
2022/09/13 11:25:59;;;;;;;16.83;9.30;;;;;;;;;;5064556;28;20190;-67
2022/09/13 11:29:01;;;;;;;14.60;8.93;;;;;;;;;;5042143;28;20406;-67
2022/09/13 11:31:42;;;;;;;12.27;8.07;;;;;;;;;;4984096;28;20204;-67
2022/09/13 11:34:39;;;;;;;9.77;7.43;;;;;;;;;;5001396;28;20549;-67
2022/09/13 11:37:17;;;;;;;9.87;6.53;;;;;;;;;;5045907;28;20687;-67
2022/09/13 11:39:52;;;;;;;9.30;6.10;;;;;;;;;;5027075;28;20682;-67
2022/09/13 11:43:00;;;;;;;9.70;6.17;;;;;;;;;;5043516;28;20198;-68
2022/09/13 11:45:55;;;;;;;8.93;6.37;;;;;;;;;;4976333;28;20232;-68
2022/09/13 11:48:42;;;;;;;7.93;6.13;;;;;;;;;;4971111;28;20244;-69
2022/09/13 11:51:34;;;;;;;8.07;6.67;;;;;;;;;;4971385;28;20220;-69
2022/09/13 11:54:14;;;;;;;11.53;8.50;;;;;;;;;;5018382;28;20209;-68
2022/09/13 11:56:50;;;;;;;7.93;7.13;;;;;;;;;;5065552;28;20191;-73
2022/09/13 11:59:42;;;;;;;8.40;6.63;;;;;;;;;;5031250;28;20645;-74
2022/09/13 12:02:28;;;;;;;10.60;8.10;;;;;;;;;;5026793;28;20230;-73
2022/09/13 12:05:30;;;;;;;11.37;9.43;;;;;;;;;;5049466;28;20191;-73
2022/09/13 12:08:26;;;;;;;8.87;7.30;;;;;;;;;;5028072;28;20324;-71
2022/09/13 12:11:01;;;;;;;11.90;7.87;;;;;;;;;;5049955;28;20214;-72
2022/09/13 12:13:32;;;;;;;9.30;7.23;;;;;;;;;;5047581;28;20644;-74
2022/09/13 12:16:13;;;;;;;10.03;8.40;;;;;;;;;;5041146;28;20225;-73
2022/09/13 12:19:00;;;;;;;11.63;8.13;;;;;;;;;;5043466;28;20190;-74
2022/09/13 12:21:43;;;;;;;11.50;9.90;;;;;;;;;;5042498;28;20252;-75
2022/09/13 12:24:18;;;;;;;14.63;9.00;;;;;;;;;;5046767;28;20682;-72
2022/09/13 12:26:51;;;;;;;8.00;7.00;;;;;;;;;;5044638;28;20253;-72
2022/09/13 12:29:38;;;;;;;8.23;6.57;;;;;;;;;;5067307;28;20203;-73
2022/09/13 12:32:09;;;;;;;7.53;5.70;;;;;;;;;;5038728;28;20194;-72
2022/09/13 12:34:58;;;;;;;14.03;5.30;;;;;;;;;;5044950;28;20631;-77
2022/09/13 12:37:28;;;;;;;8.33;6.13;;;;;;;;;;5047806;28;20198;-73
2022/09/13 12:40:20;;;;;;;7.73;6.23;;;;;;;;;;5029234;28;20214;-72
2022/09/13 12:43:14;;;;;;;9.67;4.47;;;;;;;;;;5045840;28;20198;-73
2022/09/13 12:45:53;;;;;;;8.70;4.63;;;;;;;;;;5041777;28;20215;-74
2022/09/13 12:48:43;;;;;;;4.90;4.17;;;;;;;;;;5036743;28;20288;-67
2022/09/13 12:51:30;;;;;;;4.43;3.40;;;;;;;;;;5057862;28;20218;-66
2022/09/13 12:54:20;;;;;;;5.47;3.90;;;;;;;;;;5045636;28;20229;-66
2022/09/13 12:56:54;;;;;;;4.83;3.80;;;;;;;;;;5047002;28;20194;-65
2022/09/13 12:59:26;;;;;;;6.07;5.07;;;;;;;;;;5039283;28;20253;-75
2022/09/13 13:01:59;;;;;;;6.07;4.40;;;;;;;;;;5045662;28;20204;-74
2022/09/13 13:04:33;;;;;;;5.17;4.67;;;;;;;;;;5041431;28;20252;-73
2022/09/13 13:07:09;;;;;;;5.87;4.60;;;;;;;;;;5062027;28;20237;-73
2022/09/13 13:09:52;;;;;;;3.97;3.30;;;;;;;;;;5047512;28;20623;-74
2022/09/13 13:12:44;;;;;;;3.43;2.97;;;;;;;;;;5023325;28;20187;-74
2022/09/13 13:15:16;;;;;;;3.60;3.30;;;;;;;;;;5035260;28;20289;-75
2022/09/13 13:17:52;;;;;;;4.40;3.40;;;;;;;;;;5053335;28;20211;-73
2022/09/13 13:21:00;;;;;;;3.70;3.40;;;;;;;;;;5034019;28;20216;-72
2022/09/13 13:23:34;;;;;;;6.30;3.70;;;;;;;;;;4964243;28;20834;-74
2022/09/13 13:26:08;;;;;;;4.60;3.40;;;;;;;;;;4963679;28;20559;-72
2022/09/13 13:28:50;;;;;;;3.40;3.10;;;;;;;;;;4964352;28;20232;-74
2022/09/13 13:31:30;;;;;;;4.97;3.10;;;;;;;;;;4947517;28;20711;-72
2022/09/13 13:34:24;;;;;;;5.40;3.23;;;;;;;;;;4946238;28;20220;-76
2022/09/13 13:37:00;;;;;;;10.43;3.97;;;;;;;;;;4948066;28;20216;-75
2022/09/13 13:39:50;;;;;;;6.80;3.40;;;;;;;;;;5043586;28;20210;-73
2022/09/13 13:42:38;;;;;;;5.10;2.83;;;;;;;;;;5043506;28;20188;-74
2022/09/13 13:45:23;;;;;;;6.40;3.13;;;;;;;;;;5045608;28;20198;-72
2022/09/13 13:48:16;;;;;;;6.57;3.10;;;;;;;;;;5046225;28;20236;-75
2022/09/13 13:51:11;;;;;;;6.40;3.70;;;;;;;;;;5023893;28;20210;-74
2022/09/13 13:53:46;;;;;;;5.07;3.33;;;;;;;;;;5017105;28;20289;-72
2022/09/13 13:56:21;;;;;;;6.70;3.83;;;;;;;;;;5049651;28;20256;-73
2022/09/13 13:58:55;;;;;;;5.27;3.40;;;;;;;;;;5048492;28;20230;-73
2022/09/13 14:01:31;;;;;;;5.20;3.63;;;;;;;;;;5059149;28;20329;-75
2022/09/13 14:04:24;;;;;;;6.67;4.13;;;;;;;;;;5038847;28;20219;-74
2022/09/13 14:07:14;;;;;;;7.10;4.03;;;;;;;;;;5028032;28;20209;-72
2022/09/13 14:10:02;;;;;;;6.77;5.20;;;;;;;;;;5044027;28;20257;-73
2022/09/13 14:12:48;;;;;;;6.83;4.90;;;;;;;;;;5044014;28;20198;-74
2022/09/13 14:15:31;;;;;;;9.63;4.87;;;;;;;;;;5038004;28;20252;-72
2022/09/13 14:18:16;;;;;;;6.03;4.13;;;;;;;;;;5049939;28;20202;-73
2022/09/13 14:21:03;;;;;;;5.90;4.07;;;;;;;;;;5043606;28;20271;-74
2022/09/13 14:23:35;;;;;;;8.93;4.47;;;;;;;;;;5060799;28;20268;-72
2022/09/13 14:26:10;;;;;;;13.43;4.40;;;;;;;;;;5045127;28;20623;-74
2022/09/13 14:28:42;;;;;;;6.67;4.03;;;;;;;;;;5046709;28;20222;-71
2022/09/13 14:31:21;;;;;;;6.93;4.30;;;;;;;;;;5028627;28;20210;-75
2022/09/13 14:34:03;;;;;;;3.97;3.57;;;;;;;;;;5036598;28;20758;-75
2022/09/13 14:36:35;;;;;;;7.37;3.93;;;;;;;;;;5056688;28;20198;-74
2022/09/13 14:39:08;;;;;;;4.93;3.40;;;;;;;;;;5043367;28;20218;-73
2022/09/13 14:41:39;;;;;;;5.93;4.00;;;;;;;;;;5053915;28;20206;-72
2022/09/13 14:44:17;;;;;;;6.53;4.47;;;;;;;;;;5023505;28;20264;-72
2022/09/13 14:47:04;;;;;;;5.87;3.57;;;;;;;;;;5031835;28;20235;-73
2022/09/13 14:49:39;;;;;;;4.03;3.23;;;;;;;;;;5044681;28;20190;-73
2022/09/13 14:52:21;;;;;;;5.70;3.20;;;;;;;;;;5043759;28;20218;-73
2022/09/13 14:55:08;;;;;;;4.07;3.30;;;;;;;;;;5028560;28;20772;-73
2022/09/13 14:57:45;;;;;;;5.17;3.57;;;;;;;;;;5064569;28;20197;-73
2022/09/13 15:00:18;;;;;;;3.80;3.10;;;;;;;;;;5067364;28;20284;-73
2022/09/13 15:02:49;;;;;;;5.53;3.40;;;;;;;;;;5048756;28;20222;-72
2022/09/13 15:05:26;;;;;;;6.43;3.27;;;;;;;;;;5045159;28;20534;-73
2022/09/13 15:08:01;;;;;;;4.63;4.00;;;;;;;;;;5070562;28;20205;-73
2022/09/13 15:10:33;;;;;;;4.37;3.50;;;;;;;;;;5066344;28;20197;-72
2022/09/13 15:13:10;;;;;;;4.27;3.87;;;;;;;;;;5068443;28;20369;-74
2022/09/13 15:15:42;;;;;;;4.33;3.13;;;;;;;;;;5070491;28;20198;-74
2022/09/13 15:18:19;;;;;;;4.87;2.70;;;;;;;;;;5074228;28;20420;-73
2022/09/13 15:21:02;;;;;;;4.53;2.83;;;;;;;;;;5052284;28;20193;-74
2022/09/13 15:23:40;;;;;;;3.47;2.70;;;;;;;;;;5090651;28;20201;-74
2022/09/13 15:26:11;;;;;;;5.97;2.63;;;;;;;;;;5068361;28;20205;-69
2022/09/13 15:29:01;;;;;;;3.00;2.30;;;;;;;;;;5061062;28;20923;-67
2022/09/13 15:31:35;;;;;;;2.63;2.40;;;;;;;;;;5068443;28;20543;-68
2022/09/13 15:34:22;;;;;;;5.30;2.90;;;;;;;;;;5076921;28;20197;-67
2022/09/13 15:37:11;;;;;;;3.83;3.03;;;;;;;;;;5069887;28;20213;-68
2022/09/13 15:39:46;;;;;;;4.23;3.10;;;;;;;;;;5088447;28;20213;-67
2022/09/13 15:42:17;;;;;;;4.53;3.50;;;;;;;;;;5087984;28;20627;-68
2022/09/13 15:44:47;;;;;;;5.47;4.10;;;;;;;;;;5070708;28;20190;-65
2022/09/13 15:47:19;;;;;;;5.33;3.27;;;;;;;;;;5070312;28;20205;-65